Time;durP1;ratioP1;P1;durP2;ratioP2;P2;SDS_P1;SDS_P2;PMS_P1;PMS_P2;Temp;Humidity;BMP_temperature;BMP_pressure;BME280_temperature;BME280_humidity;BME280_pressure;Samples;Min_cycle;Max_cycle;Signal;HPM_P1;HPM_P2
2022/10/20 00:01:54;;;;;;;1999.90;999.90;;;7.00;99.90;;;;;;5078354;28;20602;-65
2022/10/20 00:04:19;;;;;;;1999.90;999.90;;;6.90;99.90;;;;;;5093680;28;20082;-65
2022/10/20 00:06:45;;;;;;;1999.90;999.90;;;6.90;99.90;;;;;;5095297;28;20040;-65
2022/10/20 00:09:11;;;;;;;1999.90;999.90;;;7.00;99.90;;;;;;5109581;28;20164;-65
2022/10/20 00:11:36;;;;;;;1999.90;999.90;;;6.90;99.90;;;;;;5111091;27;20487;-65
2022/10/20 00:14:03;;;;;;;1999.90;999.90;;;6.90;99.90;;;;;;5111684;27;20043;-65
2022/10/20 00:16:31;;;;;;;1999.90;999.90;;;7.00;99.90;;;;;;5082444;27;20125;-65
2022/10/20 00:18:57;;;;;;;1999.90;999.90;;;6.90;99.90;;;;;;5110041;27;20118;-65
2022/10/20 00:21:25;;;;;;;1999.90;999.90;;;6.90;99.90;;;;;;5108738;27;20032;-65
2022/10/20 00:23:50;;;;;;;1999.90;999.90;;;6.90;99.90;;;;;;5108459;27;20046;-65
2022/10/20 00:26:27;;;;;;;1999.90;999.90;;;6.90;99.90;;;;;;5083888;27;20129;-65
2022/10/20 00:28:53;;;;;;;1999.90;999.90;;;6.80;99.90;;;;;;5095420;27;20473;-65
2022/10/20 00:31:20;;;;;;;1999.90;999.90;;;6.80;99.90;;;;;;5098379;28;20088;-65
2022/10/20 00:33:46;;;;;;;1999.90;999.90;;;6.80;99.90;;;;;;5091935;28;20039;-65
2022/10/20 00:36:15;;;;;;;1999.90;999.90;;;6.80;99.90;;;;;;5111274;27;20039;-65
2022/10/20 00:38:41;;;;;;;1999.90;999.90;;;6.70;99.90;;;;;;5104525;27;20039;-65
2022/10/20 00:41:07;;;;;;;1999.90;999.90;;;6.70;99.90;;;;;;5074965;28;20044;-65
2022/10/20 00:43:54;;;;;;;1999.90;999.90;;;6.70;99.90;;;;;;5108981;28;20040;-65
2022/10/20 00:46:25;;;;;;;1999.90;999.90;;;6.70;99.90;;;;;;5102617;27;20126;-65
2022/10/20 00:48:55;;;;;;;1999.90;999.90;;;6.70;99.90;;;;;;5117219;27;20046;-65
2022/10/20 00:51:25;;;;;;;1999.90;999.90;;;6.60;99.90;;;;;;5115763;27;20516;-65
2022/10/20 00:53:54;;;;;;;1999.90;999.90;;;6.60;99.90;;;;;;5109848;27;20475;-65
2022/10/20 00:56:21;;;;;;;1999.90;999.90;;;6.60;99.90;;;;;;5109106;27;20043;-65
2022/10/20 00:58:47;;;;;;;1999.90;999.90;;;6.60;99.90;;;;;;5093682;27;20374;-65
2022/10/20 01:01:13;;;;;;;1999.90;999.90;;;6.60;99.90;;;;;;5087967;28;20031;-65
2022/10/20 01:03:44;;;;;;;1999.90;999.90;;;6.60;99.90;;;;;;5089655;28;20633;-65
2022/10/20 01:06:12;;;;;;;1999.90;999.90;;;6.60;99.90;;;;;;5109280;27;20036;-65
2022/10/20 01:08:37;;;;;;;1999.90;999.90;;;6.60;99.90;;;;;;5107788;28;20040;-65
2022/10/20 01:11:24;;;;;;;1999.90;999.90;;;6.60;99.90;;;;;;5108499;27;20048;-65
2022/10/20 01:14:12;;;;;;;1999.90;999.90;;;6.60;99.90;;;;;;5090878;27;20048;-65
2022/10/20 01:16:44;;;;;;;1999.90;999.90;;;6.60;99.90;;;;;;5102779;28;20130;-65
2022/10/20 01:19:40;;;;;;;1999.90;999.90;;;6.50;99.90;;;;;;5090000;28;20050;-65
2022/10/20 01:22:30;;;;;;;1999.90;999.90;;;6.50;99.90;;;;;;5079006;27;20048;-65
2022/10/20 01:25:19;;;;;;;1999.90;999.90;;;6.50;99.90;;;;;;5108100;27;20050;-65
2022/10/20 01:27:51;;;;;;;1999.90;999.90;;;6.40;99.90;;;;;;5102809;28;20054;-65
2022/10/20 01:30:20;;;;;;;1999.90;999.90;;;6.40;99.90;;;;;;5107884;27;20040;-65
2022/10/20 01:33:12;;;;;;;1999.90;999.90;;;6.30;99.90;;;;;;5108370;28;20067;-65
2022/10/20 01:35:49;;;;;;;1999.90;999.90;;;6.30;99.90;;;;;;5106594;27;20532;-65
2022/10/20 01:38:46;;;;;;;1999.90;999.90;;;6.30;99.90;;;;;;5096147;28;20455;-65
2022/10/20 01:41:23;;;;;;;1999.90;999.90;;;6.30;99.90;;;;;;5088011;28;20042;-65
2022/10/20 01:43:49;;;;;;;1999.90;999.90;;;6.30;99.90;;;;;;5088988;28;20043;-64
2022/10/20 01:46:18;;;;;;;1999.90;999.90;;;6.30;99.90;;;;;;5107476;28;20409;-65
2022/10/20 01:48:45;;;;;;;1999.90;999.90;;;6.30;99.90;;;;;;5107704;28;20124;-65
2022/10/20 01:51:10;;;;;;;1999.90;999.90;;;6.30;99.90;;;;;;5089616;28;20115;-65
2022/10/20 01:53:36;;;;;;;1999.90;999.90;;;6.30;99.90;;;;;;5087430;28;20047;-65
2022/10/20 01:56:03;;;;;;;1999.90;999.90;;;6.30;99.90;;;;;;5095244;27;20050;-65
2022/10/20 01:58:45;;;;;;;1999.90;999.90;;;6.30;99.90;;;;;;5108420;27;20058;-65
2022/10/20 02:01:36;;;;;;;1999.90;999.90;;;6.30;99.90;;;;;;5108255;27;20047;-65
2022/10/20 02:04:03;;;;;;;1999.90;999.90;;;6.30;99.90;;;;;;5105682;28;20362;-65
2022/10/20 02:06:52;;;;;;;1999.90;999.90;;;6.30;99.90;;;;;;5100441;28;20043;-65
2022/10/20 02:09:25;;;;;;;1999.90;999.90;;;6.30;99.90;;;;;;5088899;28;20043;-65
2022/10/20 02:12:05;;;;;;;1999.90;999.90;;;6.30;99.90;;;;;;5107547;28;20032;-65
2022/10/20 02:14:34;;;;;;;1999.90;999.90;;;6.30;99.90;;;;;;5093648;28;20040;-65
2022/10/20 02:17:08;;;;;;;1999.90;999.90;;;6.30;99.90;;;;;;5090332;28;20036;-65
2022/10/20 02:19:38;;;;;;;1999.90;999.90;;;6.20;99.90;;;;;;5089096;28;20569;-65
2022/10/20 02:22:05;;;;;;;1999.90;999.90;;;6.20;99.90;;;;;;5109627;28;20055;-65
2022/10/20 02:24:37;;;;;;;1999.90;999.90;;;6.20;99.90;;;;;;5077763;28;20043;-65
2022/10/20 02:27:11;;;;;;;1999.90;999.90;;;6.20;99.90;;;;;;5088803;28;20119;-65
2022/10/20 02:29:46;;;;;;;1999.90;999.90;;;6.20;99.90;;;;;;5104856;28;20042;-65
2022/10/20 02:32:13;;;;;;;1999.90;999.90;;;6.20;99.90;;;;;;5125056;28;20050;-65
2022/10/20 02:34:39;;;;;;;1999.90;999.90;;;6.20;99.90;;;;;;5089779;28;20051;-65
2022/10/20 02:37:05;;;;;;;1999.90;999.90;;;6.20;99.90;;;;;;5109661;28;20031;-65
2022/10/20 02:39:30;;;;;;;1999.90;999.90;;;6.20;99.90;;;;;;5100794;28;20039;-65
2022/10/20 02:41:56;;;;;;;1999.90;999.90;;;6.20;99.90;;;;;;5107713;28;20501;-65
2022/10/20 02:44:21;;;;;;;1999.90;999.90;;;6.20;99.90;;;;;;5105255;28;20086;-65
2022/10/20 02:46:47;;;;;;;1999.90;999.90;;;6.10;99.90;;;;;;5090840;28;20074;-65
2022/10/20 02:49:13;;;;;;;1999.90;999.90;;;6.10;99.90;;;;;;5086140;28;20051;-65
2022/10/20 02:51:38;;;;;;;1999.90;999.90;;;6.10;99.90;;;;;;5102275;28;20046;-65
2022/10/20 02:54:04;;;;;;;1999.90;999.90;;;6.20;99.90;;;;;;5108507;27;20043;-65
2022/10/20 02:56:30;;;;;;;1999.90;999.90;;;6.20;99.90;;;;;;5092982;28;20147;-65
2022/10/20 02:58:55;;;;;;;1999.90;999.90;;;6.10;99.90;;;;;;5118231;27;20042;-65
2022/10/20 03:01:21;;;;;;;1999.90;999.90;;;6.20;99.90;;;;;;5110947;28;20599;-65
2022/10/20 03:03:47;;;;;;;1999.90;999.90;;;6.20;99.90;;;;;;5092016;27;20144;-65
2022/10/20 03:06:15;;;;;;;1999.90;999.90;;;6.10;99.90;;;;;;5109624;28;20047;-65
2022/10/20 03:08:41;;;;;;;1999.90;999.90;;;6.10;99.90;;;;;;5113889;27;20050;-65
2022/10/20 03:11:08;;;;;;;1999.90;999.90;;;6.10;99.90;;;;;;5110204;27;20562;-65
2022/10/20 03:13:33;;;;;;;1999.90;999.90;;;6.10;99.90;;;;;;5110492;28;20073;-65
2022/10/20 03:16:00;;;;;;;1999.90;999.90;;;6.10;99.90;;;;;;5111630;27;20039;-65
2022/10/20 03:18:26;;;;;;;1999.90;999.90;;;6.10;99.90;;;;;;5077435;28;20127;-65
2022/10/20 03:20:52;;;;;;;1999.90;999.90;;;6.20;99.90;;;;;;5110208;27;20036;-65
2022/10/20 03:23:18;;;;;;;1999.90;999.90;;;6.10;99.90;;;;;;5112515;27;20054;-65
2022/10/20 03:25:44;;;;;;;1999.90;999.90;;;6.20;99.90;;;;;;5083609;28;20586;-65
2022/10/20 03:28:09;;;;;;;1999.90;999.90;;;6.10;99.90;;;;;;5086286;28;20087;-65
2022/10/20 03:30:35;;;;;;;1999.90;999.90;;;6.10;99.90;;;;;;5117396;27;20124;-65
2022/10/20 03:33:00;;;;;;;1999.90;999.90;;;6.10;99.90;;;;;;5117930;27;20036;-65
2022/10/20 03:35:26;;;;;;;1999.90;999.90;;;6.10;99.90;;;;;;5110688;27;20036;-65
2022/10/20 03:37:51;;;;;;;1999.90;999.90;;;6.10;99.90;;;;;;5110707;27;20114;-65
2022/10/20 03:40:17;;;;;;;1999.90;999.90;;;6.10;99.90;;;;;;5109747;27;20116;-65
2022/10/20 03:42:43;;;;;;;1999.90;999.90;;;6.10;99.90;;;;;;5086246;28;20031;-65
2022/10/20 03:45:09;;;;;;;1999.90;999.90;;;6.20;99.90;;;;;;5091084;27;20112;-65
2022/10/20 03:47:34;;;;;;;1999.90;999.90;;;6.20;99.90;;;;;;5120870;27;20460;-65
2022/10/20 03:50:00;;;;;;;1999.90;999.90;;;6.20;99.90;;;;;;5071078;28;20401;-65
2022/10/20 03:52:26;;;;;;;1999.90;999.90;;;6.10;99.90;;;;;;5107588;27;20408;-65
2022/10/20 03:54:51;;;;;;;1999.90;999.90;;;6.10;99.90;;;;;;5109900;27;20055;-65
2022/10/20 03:57:19;;;;;;;1999.90;999.90;;;6.20;99.90;;;;;;5101358;28;20046;-65
2022/10/20 03:59:44;;;;;;;1999.90;999.90;;;6.10;99.90;;;;;;5090867;27;20456;-65
2022/10/20 04:02:20;;;;;;;1999.90;999.90;;;6.10;99.90;;;;;;5076666;28;20051;-65
2022/10/20 04:04:45;;;;;;;1999.90;999.90;;;6.10;99.90;;;;;;5098094;27;20439;-65
2022/10/20 04:07:11;;;;;;;1999.90;999.90;;;6.20;99.90;;;;;;5115973;27;20043;-65
2022/10/20 04:09:36;;;;;;;1999.90;999.90;;;6.10;99.90;;;;;;5073694;28;20401;-65
2022/10/20 04:12:02;;;;;;;1999.90;999.90;;;6.10;99.90;;;;;;5090631;28;20481;-65
2022/10/20 04:14:27;;;;;;;1999.90;999.90;;;6.10;99.90;;;;;;5108905;28;20040;-65
2022/10/20 04:16:53;;;;;;;1999.90;999.90;;;6.10;99.90;;;;;;5108771;27;20489;-65
2022/10/20 04:19:18;;;;;;;1999.90;999.90;;;6.10;99.90;;;;;;5090130;28;20116;-65
2022/10/20 04:21:44;;;;;;;1999.90;999.90;;;6.10;99.90;;;;;;5091055;28;20055;-65
2022/10/20 04:24:10;;;;;;;1999.90;999.90;;;6.10;99.90;;;;;;5089810;27;20047;-65
2022/10/20 04:26:35;;;;;;;1999.90;999.90;;;6.10;99.90;;;;;;5095756;28;20047;-65
2022/10/20 04:29:01;;;;;;;1999.90;999.90;;;6.00;99.90;;;;;;5108644;28;20114;-65
2022/10/20 04:31:27;;;;;;;1999.90;999.90;;;6.00;99.90;;;;;;5095632;28;20054;-65
2022/10/20 04:33:52;;;;;;;1999.90;999.90;;;6.00;99.90;;;;;;5093058;28;20408;-65
2022/10/20 04:36:18;;;;;;;1999.90;999.90;;;6.00;99.90;;;;;;5086808;27;20039;-65
2022/10/20 04:38:43;;;;;;;1999.90;999.90;;;6.00;99.90;;;;;;5108625;27;20510;-65
2022/10/20 04:41:09;;;;;;;1999.90;999.90;;;6.00;99.90;;;;;;5109936;28;20477;-65
2022/10/20 04:43:35;;;;;;;1999.90;999.90;;;6.00;99.90;;;;;;5090042;28;20106;-65
2022/10/20 04:46:05;;;;;;;1999.90;999.90;;;6.00;99.90;;;;;;5108575;28;20055;-65
2022/10/20 04:48:31;;;;;;;1999.90;999.90;;;6.00;99.90;;;;;;5107791;27;20070;-65
2022/10/20 04:51:09;;;;;;;1999.90;999.90;;;6.00;99.90;;;;;;5109612;27;20503;-65
2022/10/20 04:53:36;;;;;;;1999.90;999.90;;;6.00;99.90;;;;;;5109247;27;20043;-65
2022/10/20 04:56:03;;;;;;;1999.90;999.90;;;5.90;99.90;;;;;;5091043;28;20149;-65
2022/10/20 04:58:28;;;;;;;1999.90;999.90;;;6.00;99.90;;;;;;5110367;27;20659;-65
2022/10/20 05:01:03;;;;;;;1999.90;999.90;;;5.90;99.90;;;;;;5115613;27;20207;-65
2022/10/20 05:03:29;;;;;;;1999.90;999.90;;;5.90;99.90;;;;;;5090259;28;20124;-65
2022/10/20 05:06:05;;;;;;;1999.90;999.90;;;5.90;99.90;;;;;;5109731;27;20085;-65
2022/10/20 05:08:31;;;;;;;1999.90;999.90;;;5.90;99.90;;;;;;5089029;27;20493;-65
2022/10/20 05:10:59;;;;;;;1999.90;999.90;;;5.90;99.90;;;;;;5090530;28;20046;-65
2022/10/20 05:13:25;;;;;;;1999.90;999.90;;;5.90;99.90;;;;;;5105976;27;20096;-65
2022/10/20 05:15:52;;;;;;;1999.90;999.90;;;5.90;99.90;;;;;;5093077;27;20473;-65
2022/10/20 05:18:17;;;;;;;1999.90;999.90;;;5.90;99.90;;;;;;5109941;27;20036;-65
2022/10/20 05:20:43;;;;;;;1999.90;999.90;;;5.90;99.90;;;;;;5093123;27;20093;-65
2022/10/20 05:23:08;;;;;;;1999.90;999.90;;;5.90;99.90;;;;;;5110781;27;20044;-65
2022/10/20 05:25:38;;;;;;;1999.90;999.90;;;5.90;99.90;;;;;;5108743;27;20043;-65
2022/10/20 05:28:04;;;;;;;1999.90;999.90;;;5.90;99.90;;;;;;5079137;28;20048;-65
2022/10/20 05:30:29;;;;;;;1999.90;999.90;;;6.00;99.90;;;;;;5119316;27;20054;-65
2022/10/20 05:32:55;;;;;;;1999.90;999.90;;;5.90;99.90;;;;;;5101587;28;20051;-65
2022/10/20 05:35:21;;;;;;;1999.90;999.90;;;6.00;99.90;;;;;;5114905;27;20043;-65
2022/10/20 05:37:47;;;;;;;1999.90;999.90;;;6.00;99.90;;;;;;5102940;28;20071;-65
2022/10/20 05:40:12;;;;;;;1999.90;999.90;;;6.00;99.90;;;;;;5090012;28;20039;-65
2022/10/20 05:42:38;;;;;;;1999.90;999.90;;;5.90;99.90;;;;;;5116787;27;20035;-65
2022/10/20 05:45:04;;;;;;;1999.90;999.90;;;6.00;99.90;;;;;;5117479;27;20055;-65
2022/10/20 05:47:30;;;;;;;1999.90;999.90;;;5.90;99.90;;;;;;5089863;27;20057;-65
2022/10/20 05:49:56;;;;;;;1999.90;999.90;;;5.90;99.90;;;;;;5099907;28;20040;-65
2022/10/20 05:52:21;;;;;;;1999.90;999.90;;;5.90;99.90;;;;;;5103483;28;20349;-65
2022/10/20 05:54:47;;;;;;;1999.90;999.90;;;5.90;99.90;;;;;;5087622;28;20131;-65
2022/10/20 05:57:12;;;;;;;1999.90;999.90;;;5.90;99.90;;;;;;5090446;28;20497;-65
2022/10/20 05:59:38;;;;;;;1999.90;999.90;;;5.90;99.90;;;;;;5098694;28;20553;-65
2022/10/20 06:02:04;;;;;;;1999.90;999.90;;;5.90;99.90;;;;;;5110249;27;20446;-65
2022/10/20 06:04:30;;;;;;;1999.90;999.90;;;5.90;99.90;;;;;;5106883;27;20138;-65
2022/10/20 06:06:55;;;;;;;1999.90;999.90;;;5.90;99.90;;;;;;5085436;28;20584;-65
2022/10/20 06:09:23;;;;;;;1999.90;999.90;;;5.90;99.90;;;;;;5101286;27;20131;-65
2022/10/20 06:11:49;;;;;;;1999.90;999.90;;;5.90;99.90;;;;;;5112501;27;20138;-65
2022/10/20 06:14:16;;;;;;;1999.90;999.90;;;5.90;99.90;;;;;;5114597;28;20509;-65
2022/10/20 06:16:42;;;;;;;1999.90;999.90;;;5.90;99.90;;;;;;5105210;28;20031;-65
2022/10/20 06:19:08;;;;;;;1999.90;999.90;;;5.90;99.90;;;;;;5090049;28;20044;-65
2022/10/20 06:21:35;;;;;;;1999.90;999.90;;;6.00;99.90;;;;;;5101290;28;20392;-65
2022/10/20 06:24:03;;;;;;;1999.90;999.90;;;6.00;99.90;;;;;;5092522;28;20162;-65
2022/10/20 06:26:35;;;;;;;1999.90;999.90;;;6.00;99.90;;;;;;5098393;28;20558;-65
2022/10/20 06:29:03;;;;;;;1999.90;999.90;;;6.00;99.90;;;;;;5095335;28;20413;-65
2022/10/20 06:31:31;;;;;;;1999.90;999.90;;;6.10;99.90;;;;;;5112232;28;20050;-65
2022/10/20 06:33:57;;;;;;;1999.90;999.90;;;6.10;99.90;;;;;;5077290;28;20035;-65
2022/10/20 06:36:24;;;;;;;1999.90;999.90;;;6.10;99.90;;;;;;5112514;28;20397;-65
2022/10/20 06:38:54;;;;;;;1999.90;999.90;;;6.10;99.90;;;;;;5092950;28;20051;-65
2022/10/20 06:41:20;;;;;;;1999.90;999.90;;;6.20;99.90;;;;;;5095907;28;20468;-65
2022/10/20 06:43:46;;;;;;;1999.90;999.90;;;6.20;99.90;;;;;;5111499;28;20472;-65
2022/10/20 06:46:15;;;;;;;1999.90;999.90;;;6.20;99.90;;;;;;5116795;27;20047;-65
2022/10/20 06:48:40;;;;;;;1999.90;999.90;;;6.30;99.90;;;;;;5107967;27;20064;-65
2022/10/20 06:51:14;;;;;;;1999.90;999.90;;;6.30;99.90;;;;;;5104426;28;20473;-65
2022/10/20 06:53:41;;;;;;;1999.90;999.90;;;6.30;99.90;;;;;;5111693;28;20489;-65
2022/10/20 06:56:13;;;;;;;1999.90;999.90;;;6.40;99.90;;;;;;5108009;28;20065;-65
2022/10/20 06:58:40;;;;;;;1999.90;999.90;;;6.40;99.90;;;;;;5085368;28;20032;-65
2022/10/20 07:01:09;;;;;;;1999.90;999.90;;;6.50;99.90;;;;;;5110031;28;20035;-65
2022/10/20 07:03:35;;;;;;;1999.90;999.90;;;6.50;99.90;;;;;;5104046;28;20036;-65
2022/10/20 07:06:03;;;;;;;1999.90;999.90;;;6.50;99.90;;;;;;5090932;27;20040;-65
2022/10/20 07:08:31;;;;;;;1999.90;999.90;;;6.60;99.90;;;;;;5111575;28;20047;-65
2022/10/20 07:11:12;;;;;;;1999.90;999.90;;;6.60;99.90;;;;;;5110811;28;20069;-65
2022/10/20 07:13:38;;;;;;;1999.90;999.90;;;6.70;99.90;;;;;;5091692;28;20420;-65
2022/10/20 07:16:05;;;;;;;1999.90;999.90;;;6.70;99.90;;;;;;5111453;28;20503;-65
2022/10/20 07:18:31;;;;;;;1999.90;999.90;;;6.80;99.90;;;;;;5092331;28;20083;-65
2022/10/20 07:20:58;;;;;;;1999.90;999.90;;;6.80;99.90;;;;;;5075589;28;20082;-65
2022/10/20 07:23:25;;;;;;;1999.90;999.90;;;6.80;99.90;;;;;;5111109;28;20044;-65
2022/10/20 07:25:51;;;;;;;1999.90;999.90;;;6.90;99.90;;;;;;5110933;28;20511;-65
2022/10/20 07:28:16;;;;;;;1999.90;999.90;;;6.90;99.90;;;;;;5113379;27;20043;-65
2022/10/20 07:30:42;;;;;;;1999.90;999.90;;;6.90;99.90;;;;;;5110679;27;20047;-65
2022/10/20 07:33:08;;;;;;;1999.90;999.90;;;7.00;99.90;;;;;;5107168;28;20044;-65
2022/10/20 07:35:34;;;;;;;1999.90;999.90;;;7.00;99.90;;;;;;5092965;28;20465;-65
2022/10/20 07:38:00;;;;;;;1999.90;999.90;;;7.00;99.90;;;;;;5092299;28;20043;-65
2022/10/20 07:40:26;;;;;;;1999.90;999.90;;;7.10;99.90;;;;;;5113066;27;20039;-65
2022/10/20 07:42:52;;;;;;;1999.90;999.90;;;7.10;99.90;;;;;;5094165;27;20994;-66
2022/10/20 07:45:19;;;;;;;1999.90;999.90;;;7.20;99.90;;;;;;5116858;27;20055;-65
2022/10/20 07:47:44;;;;;;;1999.90;999.90;;;7.20;99.90;;;;;;5088051;28;20050;-65
2022/10/20 07:50:11;;;;;;;1999.90;999.90;;;7.20;99.90;;;;;;5090665;28;20404;-65
2022/10/20 07:52:37;;;;;;;1999.90;999.90;;;7.30;99.90;;;;;;5105377;27;20039;-65
2022/10/20 07:55:03;;;;;;;1999.90;999.90;;;7.40;99.90;;;;;;5120350;27;20397;-65
2022/10/20 07:57:29;;;;;;;1999.90;999.90;;;7.50;99.90;;;;;;5093870;27;20035;-66
2022/10/20 07:59:54;;;;;;;1999.90;999.90;;;7.50;99.90;;;;;;5109969;28;20100;-65
2022/10/20 08:02:22;;;;;;;1999.90;999.90;;;7.60;99.90;;;;;;5092493;28;20043;-65
2022/10/20 08:04:48;;;;;;;1999.90;999.90;;;7.70;99.90;;;;;;5114060;27;20045;-65
2022/10/20 08:07:14;;;;;;;1999.90;999.90;;;7.80;99.90;;;;;;5117219;27;20132;-65
2022/10/20 08:09:39;;;;;;;1999.90;999.90;;;7.80;99.90;;;;;;5109584;28;20500;-65
2022/10/20 08:12:05;;;;;;;1999.90;999.90;;;7.90;99.90;;;;;;5110415;28;20084;-65
2022/10/20 08:14:32;;;;;;;1999.90;999.90;;;8.00;99.90;;;;;;5108005;27;20035;-65
2022/10/20 08:16:59;;;;;;;1999.90;999.90;;;8.10;99.90;;;;;;5100985;27;20043;-65
2022/10/20 08:19:25;;;;;;;1999.90;999.90;;;8.20;99.90;;;;;;5111707;27;20066;-65
2022/10/20 08:21:51;;;;;;;1999.90;999.90;;;8.30;99.90;;;;;;5100913;28;20039;-65
2022/10/20 08:24:16;;;;;;;1999.90;999.90;;;8.40;99.90;;;;;;5102633;28;20040;-65
2022/10/20 08:26:42;;;;;;;1999.90;999.90;;;8.50;99.90;;;;;;5089862;28;20442;-65
2022/10/20 08:29:08;;;;;;;1999.90;999.90;;;8.60;99.90;;;;;;5107052;28;20039;-65
2022/10/20 08:31:33;;;;;;;1999.90;999.90;;;8.70;99.90;;;;;;5104147;27;20503;-65
2022/10/20 08:33:59;;;;;;;1999.90;999.90;;;8.80;99.90;;;;;;5102381;28;20428;-65
2022/10/20 08:36:27;;;;;;;1999.90;999.90;;;8.80;99.90;;;;;;5105781;28;20032;-65
2022/10/20 08:38:53;;;;;;;1999.90;999.90;;;8.90;99.90;;;;;;5105706;27;20070;-65
2022/10/20 08:41:32;;;;;;;1999.90;999.90;;;9.00;99.90;;;;;;5089755;28;20114;-66
2022/10/20 08:44:00;;;;;;;1999.90;999.90;;;9.10;99.90;;;;;;5083574;28;20623;-65
2022/10/20 08:46:32;;;;;;;1999.90;999.90;;;9.20;99.90;;;;;;5110547;27;20044;-65
2022/10/20 08:48:58;;;;;;;1999.90;999.90;;;9.30;99.90;;;;;;5094385;28;20123;-65
2022/10/20 08:51:29;;;;;;;1999.90;999.90;;;9.50;99.90;;;;;;5076837;28;20046;-65
2022/10/20 08:53:57;;;;;;;1999.90;999.90;;;9.70;99.90;;;;;;5092465;28;20408;-65
2022/10/20 08:56:26;;;;;;;1999.90;999.90;;;9.80;99.90;;;;;;5072627;28;20036;-65
2022/10/20 08:58:52;;;;;;;1999.90;999.90;;;9.90;99.90;;;;;;5073941;28;20054;-65
2022/10/20 09:01:26;;;;;;;1999.90;999.90;;;10.10;99.90;;;;;;5100329;27;20416;-66
2022/10/20 09:04:01;;;;;;;1999.90;999.90;;;10.30;99.90;;;;;;5090371;28;20404;-65
2022/10/20 09:06:27;;;;;;;1999.90;999.90;;;10.60;99.90;;;;;;5082377;28;20047;-65
2022/10/20 09:08:54;;;;;;;1999.90;999.90;;;10.80;99.90;;;;;;5079152;28;20039;-65
2022/10/20 09:11:24;;;;;;;1999.90;999.90;;;11.00;99.90;;;;;;5075380;28;20055;-67
2022/10/20 09:13:50;;;;;;;1999.90;999.90;;;11.20;99.90;;;;;;5084380;28;20066;-65
2022/10/20 09:16:27;;;;;;;1999.90;999.90;;;11.40;99.90;;;;;;5104506;28;20040;-65
2022/10/20 09:18:56;;;;;;;1999.90;999.90;;;11.60;99.90;;;;;;5103585;28;20570;-65
2022/10/20 09:21:22;;;;;;;1999.90;999.90;;;11.60;99.90;;;;;;5099624;27;20088;-65
2022/10/20 09:23:52;;;;;;;1999.90;999.90;;;11.50;99.90;;;;;;5094545;27;20035;-65
2022/10/20 09:26:26;;;;;;;1999.90;999.90;;;11.40;99.90;;;;;;5084101;28;20055;-65
2022/10/20 09:29:13;;;;;;;1999.90;999.90;;;11.30;99.90;;;;;;5091359;27;20035;-65
2022/10/20 09:31:40;;;;;;;1999.90;999.90;;;11.10;99.90;;;;;;5102854;27;20137;-65
2022/10/20 09:34:29;;;;;;;1999.90;999.90;;;11.10;99.90;;;;;;5091487;27;20043;-65
2022/10/20 09:37:06;;;;;;;1999.90;999.90;;;11.10;99.90;;;;;;5090541;28;20522;-65
2022/10/20 09:39:45;;;;;;;1999.90;999.90;;;11.10;99.90;;;;;;5101040;27;20031;-65
2022/10/20 09:42:14;;;;;;;1999.90;999.90;;;11.10;99.90;;;;;;5107580;28;20074;-65
2022/10/20 09:44:59;;;;;;;1999.90;999.90;;;11.10;99.90;;;;;;5085185;28;20139;-65
2022/10/20 09:47:26;;;;;;;1999.90;999.90;;;11.00;99.90;;;;;;5104824;28;20043;-65
2022/10/20 09:50:00;;;;;;;1999.90;999.90;;;11.00;99.90;;;;;;5082115;28;20616;-65
2022/10/20 09:52:43;;;;;;;1999.90;999.90;;;11.10;99.90;;;;;;5110310;27;20079;-65
2022/10/20 09:55:24;;;;;;;1999.90;999.90;;;11.10;99.90;;;;;;5095005;28;20073;-65
2022/10/20 09:57:50;;;;;;;1999.90;999.90;;;11.10;99.90;;;;;;5093706;28;20128;-65
2022/10/20 10:00:27;;;;;;;1999.90;999.90;;;11.20;99.90;;;;;;5095714;28;20062;-65
2022/10/20 10:03:20;;;;;;;1999.90;999.90;;;11.30;99.90;;;;;;5099059;28;20123;-65
2022/10/20 10:05:58;;;;;;;1999.90;999.90;;;11.40;99.90;;;;;;5122537;27;20046;-65
2022/10/20 10:08:28;;;;;;;1999.90;999.90;;;11.50;99.90;;;;;;5099181;28;20047;-66
2022/10/20 10:11:12;;;;;;;1999.90;999.90;;;11.60;99.90;;;;;;5087140;28;20031;-65
2022/10/20 10:13:42;;;;;;;1999.90;999.90;;;11.70;99.90;;;;;;5077645;28;20127;-65
2022/10/20 10:16:10;;;;;;;1999.90;999.90;;;11.90;99.90;;;;;;5086202;28;20078;-65
2022/10/20 10:18:37;;;;;;;1999.90;999.90;;;12.10;99.90;;;;;;5107270;28;20194;-65
2022/10/20 10:21:12;;;;;;;1999.90;999.90;;;12.40;99.90;;;;;;5110769;28;20091;-65
2022/10/20 10:24:01;;;;;;;1999.90;999.90;;;12.60;99.90;;;;;;5102635;28;20274;-65
2022/10/20 10:26:44;;;;;;;1999.90;999.90;;;12.80;99.90;;;;;;5075301;28;20043;-65
2022/10/20 10:29:39;;;;;;;;;;;13.00;99.90;;;;;;5089363;28;20501;-65
2022/10/20 10:32:22;;;;;;;1999.90;999.90;;;13.30;99.90;;;;;;5080955;28;20289;-65
2022/10/20 10:34:50;;;;;;;;;;;13.70;99.90;;;;;;5078352;28;20044;-65
2022/10/20 10:37:16;;;;;;;1999.90;999.90;;;13.80;99.90;;;;;;5085732;28;19919;-66
2022/10/20 10:39:43;;;;;;;1999.90;999.90;;;13.80;99.90;;;;;;5107572;28;20034;-65
2022/10/20 10:42:31;;;;;;;1999.90;999.90;;;13.80;99.90;;;;;;5103472;28;20123;-65
2022/10/20 10:45:08;;;;;;;1999.90;999.90;;;13.90;99.90;;;;;;5103221;28;20166;-65
2022/10/20 10:47:54;;;;;;;1999.90;999.90;;;13.80;99.90;;;;;;5089408;28;20047;-65
2022/10/20 10:50:37;;;;;;;1999.90;999.90;;;13.70;99.90;;;;;;5105542;28;20272;-65
2022/10/20 10:53:14;;;;;;;1999.90;999.90;;;13.70;99.90;;;;;;5105841;28;20091;-66
2022/10/20 10:55:48;;;;;;;1999.90;999.90;;;13.80;99.90;;;;;;5089920;28;20071;-65
2022/10/20 10:58:32;;;;;;;1999.90;999.90;;;13.90;99.90;;;;;;5105067;28;20048;-65
2022/10/20 11:01:30;;;;;;;1999.90;999.90;;;13.90;99.90;;;;;;5105429;28;20059;-65
2022/10/20 11:04:33;;;;;;;1999.90;999.90;;;13.90;99.90;;;;;;5100455;28;20044;-65
2022/10/20 11:07:36;;;;;;;1999.90;999.90;;;14.00;99.90;;;;;;5102581;28;20047;-65
2022/10/20 11:10:10;;;;;;;1999.90;999.90;;;13.90;99.90;;;;;;5104939;28;20048;-66
2022/10/20 11:12:53;;;;;;;1999.90;999.90;;;13.80;99.90;;;;;;5106713;28;20043;-65
2022/10/20 11:15:49;;;;;;;1999.90;999.90;;;13.70;99.90;;;;;;5107238;27;20035;-65
2022/10/20 11:18:29;;;;;;;1999.90;999.90;;;13.80;99.90;;;;;;5086493;27;20442;-66
2022/10/20 11:21:03;;;;;;;1999.90;999.90;;;13.90;99.90;;;;;;5106088;28;20081;-65
2022/10/20 11:23:34;;;;;;;1999.90;999.90;;;14.00;99.90;;;;;;5105481;27;20051;-65
2022/10/20 11:26:12;;;;;;;1999.90;999.90;;;14.00;99.90;;;;;;5107977;27;20066;-65
2022/10/20 11:28:45;;;;;;;1999.90;999.90;;;14.00;99.90;;;;;;5101471;28;20415;-65
2022/10/20 11:31:24;;;;;;;1999.90;999.90;;;13.90;99.90;;;;;;5097220;28;20044;-65
2022/10/20 11:34:08;;;;;;;1999.90;999.90;;;13.80;99.90;;;;;;5090713;28;20572;-65
2022/10/20 11:36:45;;;;;;;1999.90;999.90;;;13.70;99.90;;;;;;5094893;27;20075;-65
2022/10/20 11:39:23;;;;;;;1999.90;999.90;;;13.60;99.90;;;;;;5076630;28;20100;-65
2022/10/20 11:41:53;;;;;;;1999.90;999.90;;;13.60;99.90;;;;;;5115824;27;20031;-65
2022/10/20 11:44:21;;;;;;;1999.90;999.90;;;13.60;99.90;;;;;;5107535;27;20061;-65
2022/10/20 11:47:02;;;;;;;1999.90;999.90;;;13.60;99.90;;;;;;5094858;28;20039;-65
2022/10/20 11:49:30;;;;;;;1999.90;999.90;;;13.50;99.90;;;;;;5110275;27;20084;-65
2022/10/20 11:52:07;;;;;;;1999.90;999.90;;;13.50;99.90;;;;;;5078758;28;20507;-65
2022/10/20 11:54:51;;;;;;;1999.90;999.90;;;13.50;99.90;;;;;;5092994;28;20039;-65
2022/10/20 11:57:41;;;;;;;1999.90;999.90;;;13.50;99.90;;;;;;5092485;28;20044;-65
2022/10/20 12:00:33;;;;;;;1999.90;999.90;;;13.50;99.90;;;;;;5104738;27;20116;-66
2022/10/20 12:03:29;;;;;;;1999.90;999.90;;;13.60;99.90;;;;;;5092284;28;20036;-66
2022/10/20 12:06:00;;;;;;;1999.90;999.90;;;13.60;99.90;;;;;;5110003;28;20547;-65
2022/10/20 12:08:48;;;;;;;1999.90;999.90;;;13.60;99.90;;;;;;5093413;27;20046;-65
2022/10/20 12:11:37;;;;;;;1999.90;999.90;;;13.60;99.90;;;;;;5120051;27;20035;-65
2022/10/20 12:14:12;;;;;;;1999.90;999.90;;;13.50;99.90;;;;;;5098665;27;20163;-65
2022/10/20 12:16:53;;;;;;;1999.90;999.90;;;13.50;99.90;;;;;;5076536;28;20411;-66
2022/10/20 12:19:21;;;;;;;1999.90;999.90;;;13.40;99.90;;;;;;5106750;27;20418;-65
2022/10/20 12:21:54;;;;;;;1999.90;999.90;;;13.40;99.90;;;;;;5111306;27;20507;-65
2022/10/20 12:24:32;;;;;;;1999.90;999.90;;;13.40;99.90;;;;;;5081959;28;20122;-66